createdAt,value
2022-08-28T00:04:16.171Z,8.47
2022-08-28T00:09:20.852Z,8.77
2022-08-28T00:14:24.412Z,9.10
2022-08-28T00:19:27.671Z,11.80
2022-08-28T00:24:32.060Z,12.10
2022-08-28T00:29:35.080Z,14.17
2022-08-28T00:34:38.817Z,12.33
2022-08-28T00:39:43.165Z,12.13
2022-08-28T00:44:47.474Z,11.93
2022-08-28T00:49:54.044Z,11.20
2022-08-28T00:55:01.236Z,11.70
2022-08-28T01:00:07.673Z,11.93
2022-08-28T01:05:10.924Z,13.37
2022-08-28T01:10:21.999Z,13.27
2022-08-28T01:15:28.593Z,13.43
2022-08-28T01:20:35.118Z,14.77
2022-08-28T01:25:40.900Z,16.00
2022-08-28T01:30:46.875Z,16.00
2022-08-28T01:35:49.968Z,14.73
2022-08-28T01:40:57.254Z,16.60
2022-08-28T01:46:02.271Z,14.80
2022-08-28T01:51:06.683Z,15.13
2022-08-28T01:56:13.783Z,13.93
2022-08-28T02:01:18.750Z,13.87
2022-08-28T02:06:21.845Z,14.27
2022-08-28T02:11:26.496Z,16.27
2022-08-28T02:16:30.639Z,16.37
2022-08-28T02:21:33.607Z,16.80
2022-08-28T02:26:37.988Z,17.80
2022-08-28T02:31:40.991Z,15.93
2022-08-28T02:36:44.330Z,16.47
2022-08-28T02:41:48.668Z,18.50
2022-08-28T02:46:51.875Z,16.27
2022-08-28T02:51:57.691Z,18.70
2022-08-28T02:57:02.113Z,16.23
2022-08-28T03:02:07.169Z,17.67
2022-08-28T03:07:12.673Z,16.57
2022-08-28T03:12:17.146Z,17.80
2022-08-28T03:17:21.378Z,16.67
2022-08-28T03:22:44.932Z,16.30
2022-08-28T03:27:49.466Z,17.17
2022-08-28T03:32:52.849Z,16.73
2022-08-28T03:37:55.846Z,16.30
2022-08-28T03:43:00.300Z,15.37
2022-08-28T03:48:03.872Z,16.40
2022-08-28T03:53:07.506Z,16.27
2022-08-28T03:58:12.067Z,15.43
2022-08-28T04:03:22.606Z,15.40
2022-08-28T04:08:26.284Z,14.73
2022-08-28T04:13:30.809Z,14.00
2022-08-28T04:18:34.529Z,14.23
2022-08-28T04:23:39.295Z,15.10
2022-08-28T04:28:43.908Z,14.07
2022-08-28T04:33:46.896Z,13.23
2022-08-28T04:38:50.691Z,13.20
2022-08-28T04:43:57.221Z,11.63
2022-08-28T04:49:00.519Z,12.97
2022-08-28T04:54:04.482Z,12.20
2022-08-28T04:59:09.611Z,12.00
2022-08-28T05:04:13.583Z,11.10
2022-08-28T05:09:21.089Z,9.40
2022-08-28T05:14:25.413Z,8.40
2022-08-28T05:19:29.348Z,8.30
2022-08-28T05:24:32.328Z,7.57
2022-08-28T05:29:36.667Z,8.77
2022-08-28T05:34:39.672Z,8.77
2022-08-28T05:39:42.604Z,7.87
2022-08-28T05:44:46.976Z,9.10
2022-08-28T05:49:49.971Z,7.80
2022-08-28T05:54:55.367Z,6.80
2022-08-28T06:00:00.116Z,6.80
2022-08-28T06:05:03.414Z,6.53
2022-08-28T06:10:07.548Z,5.87
2022-08-28T06:15:15.925Z,5.40
2022-08-28T06:20:19.346Z,5.90
2022-08-28T06:25:22.320Z,6.10
2022-08-28T06:30:26.838Z,6.87
2022-08-28T06:35:34.389Z,6.27
2022-08-28T06:40:41.927Z,5.87
2022-08-28T06:45:50.320Z,4.90
2022-08-28T06:50:55.018Z,4.53
2022-08-28T06:56:00.347Z,4.27
2022-08-28T07:01:08.677Z,4.60
2022-08-28T07:06:13.977Z,4.27
2022-08-28T07:11:19.911Z,4.73
2022-08-28T07:16:26.839Z,4.30
2022-08-28T07:21:35.333Z,4.73
2022-08-28T07:26:43.565Z,4.70
2022-08-28T07:31:51.213Z,4.57
2022-08-28T07:36:54.497Z,4.60
2022-08-28T07:41:57.486Z,3.80
2022-08-28T07:47:04.253Z,4.00
2022-08-28T07:52:08.896Z,4.03
2022-08-28T07:57:12.016Z,4.50
2022-08-28T08:02:16.586Z,3.50
2022-08-28T08:07:20.517Z,4.40
2022-08-28T08:12:23.854Z,3.77
2022-08-28T08:17:29.760Z,4.53
2022-08-28T08:22:33.141Z,4.03
2022-08-28T08:27:41.030Z,4.57
2022-08-28T08:32:47.266Z,4.60
2022-08-28T08:37:50.229Z,4.60
2022-08-28T08:42:57.196Z,4.20
2022-08-28T08:48:02.227Z,4.90
2022-08-28T08:53:29.318Z,4.40
2022-08-28T08:58:36.259Z,4.90
2022-08-28T09:03:54.507Z,4.80
2022-08-28T09:09:02.799Z,4.80
2022-08-28T09:14:12.803Z,4.27
2022-08-28T09:19:21.023Z,4.60
2022-08-28T09:24:26.701Z,5.07
2022-08-28T09:29:33.000Z,4.70
2022-08-28T09:34:39.252Z,4.50
2022-08-28T09:39:45.542Z,4.47
2022-08-28T09:44:56.366Z,4.37
2022-08-28T09:50:17.245Z,4.33
2022-08-28T09:55:26.604Z,4.47
2022-08-28T10:00:35.137Z,4.40
2022-08-28T10:05:47.944Z,4.77
2022-08-28T10:10:57.443Z,4.50
2022-08-28T10:16:18.522Z,4.23
2022-08-28T10:21:30.645Z,4.30
2022-08-28T10:26:40.728Z,3.93
2022-08-28T10:31:52.832Z,3.93
2022-08-28T10:37:05.390Z,4.40
2022-08-28T10:42:09.163Z,5.30
2022-08-28T10:47:14.025Z,4.77
2022-08-28T10:52:25.248Z,5.07
2022-08-28T10:57:39.254Z,4.83
2022-08-28T11:02:47.056Z,4.43
2022-08-28T11:07:55.341Z,4.80
2022-08-28T11:12:58.697Z,4.20
2022-08-28T11:18:37.933Z,4.50
2022-08-28T11:23:50.738Z,4.37
2022-08-28T11:28:53.752Z,4.53
2022-08-28T11:33:59.077Z,5.10
2022-08-28T11:39:20.593Z,4.90
2022-08-28T11:44:42.703Z,3.90
2022-08-28T11:49:46.607Z,4.23
2022-08-28T11:55:02.035Z,3.80
2022-08-28T12:00:11.563Z,3.83
2022-08-28T12:05:44.328Z,3.77
2022-08-28T12:10:59.804Z,3.70
2022-08-28T12:16:07.621Z,4.40
2022-08-28T12:21:17.456Z,3.63
2022-08-28T12:26:26.427Z,4.10
2022-08-28T12:32:10.520Z,4.70
2022-08-28T12:37:51.634Z,5.10
2022-08-28T12:43:00.225Z,4.90
2022-08-28T12:48:09.797Z,4.10
2022-08-28T12:53:16.478Z,4.60
2022-08-28T12:58:32.184Z,4.90
2022-08-28T13:03:35.744Z,4.70
2022-08-28T13:08:39.071Z,5.43
2022-08-28T13:13:48.668Z,5.13
2022-08-28T13:18:56.462Z,4.57
2022-08-28T13:24:40.431Z,4.93
2022-08-28T13:29:57.452Z,4.43
2022-08-28T13:35:19.635Z,4.90
2022-08-28T13:40:55.826Z,4.50
2022-08-28T13:45:50.784Z,3.73
2022-08-28T13:50:57.871Z,4.40
2022-08-28T13:56:01.675Z,4.40
2022-08-28T14:01:06.412Z,4.00
2022-08-28T14:06:12.378Z,5.07
2022-08-28T14:11:17.097Z,4.37
2022-08-28T14:16:21.520Z,3.97
2022-08-28T14:21:25.305Z,4.50
2022-08-28T14:26:28.958Z,3.60
2022-08-28T14:31:33.750Z,4.23
2022-08-28T14:36:37.985Z,4.00
2022-08-28T14:41:44.349Z,4.20
2022-08-28T14:46:57.177Z,3.77
2022-08-28T14:52:00.579Z,3.37
2022-08-28T14:57:03.860Z,3.37
2022-08-28T15:02:09.429Z,3.40
2022-08-28T15:07:13.512Z,3.40
2022-08-28T15:12:16.840Z,3.03
2022-08-28T15:17:23.267Z,2.97
2022-08-28T15:22:37.117Z,2.80
2022-08-28T15:27:40.567Z,2.87
2022-08-28T15:32:47.436Z,2.83
2022-08-28T15:37:51.426Z,3.37
2022-08-28T15:42:54.429Z,3.43
2022-08-28T15:47:59.715Z,3.30
2022-08-28T15:53:02.952Z,3.30
2022-08-28T15:58:13.700Z,3.37
2022-08-28T16:03:18.480Z,2.90
2022-08-28T16:08:21.520Z,2.80
2022-08-28T16:13:24.559Z,3.07
2022-08-28T16:18:29.064Z,2.97
2022-08-28T16:23:32.527Z,2.70
2022-08-28T16:28:36.533Z,2.70
2022-08-28T16:33:42.822Z,3.63
2022-08-28T16:38:49.531Z,3.30
2022-08-28T16:44:02.973Z,3.00
2022-08-28T16:49:07.501Z,3.53
2022-08-28T16:54:10.796Z,3.63
2022-08-28T16:59:16.529Z,3.80
2022-08-28T17:04:21.684Z,3.10
2022-08-28T17:09:24.719Z,3.40
2022-08-28T17:14:28.282Z,3.63
2022-08-28T17:19:32.641Z,3.23
2022-08-28T17:24:35.806Z,3.40
2022-08-28T17:29:39.355Z,2.70
2022-08-28T17:34:43.752Z,3.00
2022-08-28T17:39:46.802Z,3.23
2022-08-28T17:44:49.882Z,3.47
2022-08-28T17:49:54.930Z,3.23
2022-08-28T17:54:58.090Z,3.30
2022-08-28T18:00:05.250Z,3.17
2022-08-28T18:05:30.158Z,3.37
2022-08-28T18:10:35.112Z,2.97
2022-08-28T18:15:38.219Z,3.07
2022-08-28T18:20:43.137Z,3.40
2022-08-28T18:25:50.846Z,3.50
2022-08-28T18:30:55.260Z,4.03
2022-08-28T18:35:59.804Z,5.70
2022-08-28T18:41:03.605Z,4.77
2022-08-28T18:46:08.939Z,4.20
2022-08-28T18:51:13.741Z,6.10
2022-08-28T18:56:18.823Z,4.03
2022-08-28T19:01:23.450Z,3.87
2022-08-28T19:06:28.155Z,4.53
2022-08-28T19:11:31.510Z,4.00
2022-08-28T19:16:35.403Z,4.20
2022-08-28T19:21:40.001Z,4.03
2022-08-28T19:26:43.066Z,4.67
2022-08-28T19:31:46.206Z,3.90
2022-08-28T19:36:50.977Z,3.80
2022-08-28T19:41:54.512Z,4.67
2022-08-28T19:46:57.592Z,3.77
2022-08-28T19:52:03.034Z,4.17
2022-08-28T19:57:06.689Z,4.30
2022-08-28T20:02:10.119Z,4.67
2022-08-28T20:07:14.494Z,4.30
2022-08-28T20:12:17.661Z,4.53
2022-08-28T20:17:20.701Z,3.43
2022-08-28T20:22:25.183Z,4.90
2022-08-28T20:27:29.661Z,4.37
2022-08-28T20:32:33.068Z,4.40
2022-08-28T20:37:44.731Z,6.10
2022-08-28T20:42:49.313Z,7.43
2022-08-28T20:47:52.352Z,5.47
2022-08-28T20:52:56.761Z,6.20
2022-08-28T20:57:59.761Z,5.40
2022-08-28T21:03:02.726Z,5.27
2022-08-28T21:09:00.415Z,6.50
2022-08-28T21:14:03.420Z,5.70
2022-08-28T21:19:15.863Z,6.07
2022-08-28T21:24:21.101Z,6.10
2022-08-28T21:29:24.681Z,5.53
2022-08-28T21:34:27.927Z,6.00
2022-08-28T21:39:32.303Z,5.90
2022-08-28T21:44:35.291Z,5.90
2022-08-28T21:49:38.928Z,5.27
2022-08-28T21:54:43.389Z,5.00
2022-08-28T21:59:46.368Z,5.83
2022-08-28T22:04:49.610Z,5.53
2022-08-28T22:09:54.004Z,5.20
2022-08-28T22:14:57.069Z,5.13
2022-08-28T22:20:00.080Z,4.30
2022-08-28T22:25:05.590Z,4.70
2022-08-28T22:30:09.571Z,5.07
2022-08-28T22:35:12.596Z,4.27
2022-08-28T22:40:17.470Z,4.13
2022-08-28T22:45:21.528Z,4.27
2022-08-28T22:50:24.730Z,4.33
2022-08-28T22:55:29.305Z,3.87
2022-08-28T23:00:33.308Z,3.70
2022-08-28T23:05:36.364Z,3.80
2022-08-28T23:10:57.985Z,3.07
2022-08-28T23:16:02.560Z,4.03
2022-08-28T23:21:08.461Z,3.83
2022-08-28T23:26:14.135Z,3.97
2022-08-28T23:31:17.110Z,3.50
2022-08-28T23:36:20.066Z,3.87
2022-08-28T23:41:24.341Z,4.70
2022-08-28T23:46:27.471Z,3.70
2022-08-28T23:51:31.073Z,3.60
2022-08-28T23:56:35.557Z,3.10
